עמוד ראשי
METAR-TAF:

METAR-TAF

שדות תעופה :

Loja, אקוודור

קו רוחב: 03-59-45S, קו אורך: 079-22-19W, גובה: 1236מטר

תצפית מזג אוויר נוכחית

הדו"ח נערך לפני 42דקות, בשעה 15:00 UTC
רוח 2קשר מכיוון צפון/צפון-מערב
טמפרטורת 22 צלסיוס
לחות 83%
לחץ 1020 hPa
ראות 10 קילומטר או יותר
עננים פזורים בגובה 3300רגל
עננים בינוניים בגובה 7000רגל

METAR: SECA 241500Z 33002KT 9999 SCT033 BKN070 22/19 Q1020 RMK A3013

זמן: 10:42 (15:42 UTC)


TAF: חסר

תצפיות ותחזיות מזג אוויר לגבי יותר מ- 4,000 שדות תעופה ברחבי העולם. דוחות METAR ו- TAF.

התחנות הזמינות מסומנות בנקודות צהובות ואדומות על גבי המפה.

העבר את העכבר לנקודה הצבעונית על מנת לראות את שם התחנה.

לאחר מכן, לחץ כדי לראות את תוכן ואת תחזיות מזג האוויר.

כדי לשנות את המפה: לחץ על הכפתורים הירוקים עם הפלוס השחור כדי להתקרב; על הכפתור הירוק עם המקף כדי להתרחק; או בחיצים הירוקים למפות סמוכות.


METAR-TAF: